sensor_id;sensor_type;location;lat;lon;timestamp;P1;durP1;ratioP1;P2;durP2;ratioP2
51048;SDS011;37084;55.228;36.450;2023-05-21T00:00:44;5.65;;;4.07;;
51048;SDS011;37084;55.228;36.450;2023-05-21T00:03:45;6.45;;;3.90;;
51048;SDS011;37084;55.228;36.450;2023-05-21T00:06:46;5.82;;;4.07;;
51048;SDS011;37084;55.228;36.450;2023-05-21T00:09:48;5.47;;;4.57;;
51048;SDS011;37084;55.228;36.450;2023-05-21T00:12:49;8.25;;;4.65;;
51048;SDS011;37084;55.228;36.450;2023-05-21T00:15:51;5.75;;;3.58;;
51048;SDS011;37084;55.228;36.450;2023-05-21T00:18:52;6.15;;;4.63;;
51048;SDS011;37084;55.228;36.450;2023-05-21T00:21:54;6.13;;;4.35;;
51048;SDS011;37084;55.228;36.450;2023-05-21T00:24:57;6.53;;;4.50;;
51048;SDS011;37084;55.228;36.450;2023-05-21T00:27:59;7.13;;;4.35;;
51048;SDS011;37084;55.228;36.450;2023-05-21T00:31:00;6.45;;;4.70;;
51048;SDS011;37084;55.228;36.450;2023-05-21T00:34:02;7.45;;;5.47;;
51048;SDS011;37084;55.228;36.450;2023-05-21T00:37:03;6.53;;;4.38;;
51048;SDS011;37084;55.228;36.450;2023-05-21T00:40:05;7.03;;;4.68;;
51048;SDS011;37084;55.228;36.450;2023-05-21T00:43:11;6.85;;;4.68;;
51048;SDS011;37084;55.228;36.450;2023-05-21T00:46:14;6.32;;;5.05;;
51048;SDS011;37084;55.228;36.450;2023-05-21T00:49:20;8.70;;;4.72;;
51048;SDS011;37084;55.228;36.450;2023-05-21T00:52:24;13.35;;;6.47;;
51048;SDS011;37084;55.228;36.450;2023-05-21T00:55:27;8.10;;;5.35;;
51048;SDS011;37084;55.228;36.450;2023-05-21T00:58:28;6.53;;;4.80;;
51048;SDS011;37084;55.228;36.450;2023-05-21T01:01:31;6.50;;;4.78;;
51048;SDS011;37084;55.228;36.450;2023-05-21T01:04:36;7.43;;;4.97;;
51048;SDS011;37084;55.228;36.450;2023-05-21T01:07:38;6.13;;;4.68;;
51048;SDS011;37084;55.228;36.450;2023-05-21T01:10:41;5.93;;;4.80;;
51048;SDS011;37084;55.228;36.450;2023-05-21T01:13:42;7.43;;;5.32;;
51048;SDS011;37084;55.228;36.450;2023-05-21T01:16:45;7.38;;;5.10;;
51048;SDS011;37084;55.228;36.450;2023-05-21T01:19:48;6.57;;;4.97;;
51048;SDS011;37084;55.228;36.450;2023-05-21T01:22:53;7.63;;;5.10;;
51048;SDS011;37084;55.228;36.450;2023-05-21T01:25:55;8.95;;;5.47;;
51048;SDS011;37084;55.228;36.450;2023-05-21T01:28:58;7.50;;;4.78;;
51048;SDS011;37084;55.228;36.450;2023-05-21T01:35:25;7.53;;;5.10;;
51048;SDS011;37084;55.228;36.450;2023-05-21T01:41:40;7.82;;;5.25;;
51048;SDS011;37084;55.228;36.450;2023-05-21T01:44:44;7.63;;;5.07;;
51048;SDS011;37084;55.228;36.450;2023-05-21T01:47:46;6.43;;;4.68;;
51048;SDS011;37084;55.228;36.450;2023-05-21T01:50:49;7.95;;;4.40;;
51048;SDS011;37084;55.228;36.450;2023-05-21T01:53:52;5.90;;;4.65;;
51048;SDS011;37084;55.228;36.450;2023-05-21T01:56:53;7.45;;;5.47;;
51048;SDS011;37084;55.228;36.450;2023-05-21T01:59:55;6.93;;;4.85;;
51048;SDS011;37084;55.228;36.450;2023-05-21T02:02:57;9.40;;;5.28;;
51048;SDS011;37084;55.228;36.450;2023-05-21T02:05:59;9.23;;;5.90;;
51048;SDS011;37084;55.228;36.450;2023-05-21T02:09:00;7.10;;;5.43;;
51048;SDS011;37084;55.228;36.450;2023-05-21T02:12:03;7.53;;;5.00;;
51048;SDS011;37084;55.228;36.450;2023-05-21T02:15:05;5.28;;;4.22;;
51048;SDS011;37084;55.228;36.450;2023-05-21T02:18:10;8.07;;;4.60;;
51048;SDS011;37084;55.228;36.450;2023-05-21T02:21:31;5.80;;;4.80;;
51048;SDS011;37084;55.228;36.450;2023-05-21T02:24:32;5.75;;;4.60;;
51048;SDS011;37084;55.228;36.450;2023-05-21T02:27:37;5.55;;;3.28;;
51048;SDS011;37084;55.228;36.450;2023-05-21T02:30:39;6.47;;;4.72;;
51048;SDS011;37084;55.228;36.450;2023-05-21T02:33:40;6.40;;;4.25;;
51048;SDS011;37084;55.228;36.450;2023-05-21T02:36:42;7.55;;;4.18;;
51048;SDS011;37084;55.228;36.450;2023-05-21T02:39:43;6.90;;;4.97;;
51048;SDS011;37084;55.228;36.450;2023-05-21T02:42:44;5.95;;;4.28;;
51048;SDS011;37084;55.228;36.450;2023-05-21T02:45:51;7.13;;;4.70;;
51048;SDS011;37084;55.228;36.450;2023-05-21T02:48:53;7.07;;;3.92;;
51048;SDS011;37084;55.228;36.450;2023-05-21T02:51:54;5.75;;;3.97;;
51048;SDS011;37084;55.228;36.450;2023-05-21T02:54:56;5.20;;;3.90;;
51048;SDS011;37084;55.228;36.450;2023-05-21T02:57:57;6.78;;;4.32;;
51048;SDS011;37084;55.228;36.450;2023-05-21T03:00:58;5.95;;;4.65;;
51048;SDS011;37084;55.228;36.450;2023-05-21T03:04:01;6.53;;;4.43;;
51048;SDS011;37084;55.228;36.450;2023-05-21T03:07:03;6.22;;;2.90;;
51048;SDS011;37084;55.228;36.450;2023-05-21T03:10:05;5.93;;;4.47;;
51048;SDS011;37084;55.228;36.450;2023-05-21T03:13:07;5.55;;;4.38;;
51048;SDS011;37084;55.228;36.450;2023-05-21T03:16:08;5.10;;;4.53;;
51048;SDS011;37084;55.228;36.450;2023-05-21T03:19:09;4.63;;;3.30;;
51048;SDS011;37084;55.228;36.450;2023-05-21T03:22:11;7.03;;;4.35;;
51048;SDS011;37084;55.228;36.450;2023-05-21T03:25:13;7.13;;;4.53;;
51048;SDS011;37084;55.228;36.450;2023-05-21T03:28:15;7.10;;;4.18;;
51048;SDS011;37084;55.228;36.450;2023-05-21T03:31:20;7.18;;;4.60;;
51048;SDS011;37084;55.228;36.450;2023-05-21T03:34:35;4.95;;;4.03;;
51048;SDS011;37084;55.228;36.450;2023-05-21T03:37:37;5.60;;;4.15;;
51048;SDS011;37084;55.228;36.450;2023-05-21T03:40:38;5.80;;;4.47;;
51048;SDS011;37084;55.228;36.450;2023-05-21T03:43:41;6.72;;;4.18;;
51048;SDS011;37084;55.228;36.450;2023-05-21T03:46:42;6.07;;;4.32;;
51048;SDS011;37084;55.228;36.450;2023-05-21T03:50:06;5.00;;;4.43;;
51048;SDS011;37084;55.228;36.450;2023-05-21T03:53:09;5.68;;;3.85;;
51048;SDS011;37084;55.228;36.450;2023-05-21T03:56:10;5.47;;;4.32;;
51048;SDS011;37084;55.228;36.450;2023-05-21T03:59:12;6.13;;;4.25;;
51048;SDS011;37084;55.228;36.450;2023-05-21T04:02:14;6.32;;;4.50;;
51048;SDS011;37084;55.228;36.450;2023-05-21T04:05:15;5.50;;;3.95;;
51048;SDS011;37084;55.228;36.450;2023-05-21T04:08:16;5.50;;;4.13;;
51048;SDS011;37084;55.228;36.450;2023-05-21T04:11:18;6.35;;;4.07;;
51048;SDS011;37084;55.228;36.450;2023-05-21T04:14:19;5.35;;;4.38;;
51048;SDS011;37084;55.228;36.450;2023-05-21T04:17:21;5.97;;;4.43;;
51048;SDS011;37084;55.228;36.450;2023-05-21T04:20:22;6.28;;;4.05;;
51048;SDS011;37084;55.228;36.450;2023-05-21T04:23:24;5.35;;;4.20;;
51048;SDS011;37084;55.228;36.450;2023-05-21T04:26:28;6.53;;;4.45;;
51048;SDS011;37084;55.228;36.450;2023-05-21T04:29:34;5.13;;;3.95;;
51048;SDS011;37084;55.228;36.450;2023-05-21T04:32:37;6.05;;;4.32;;
51048;SDS011;37084;55.228;36.450;2023-05-21T04:35:40;5.25;;;4.15;;
51048;SDS011;37084;55.228;36.450;2023-05-21T04:38:44;6.95;;;4.30;;
51048;SDS011;37084;55.228;36.450;2023-05-21T04:41:45;7.13;;;4.28;;
51048;SDS011;37084;55.228;36.450;2023-05-21T04:44:49;7.85;;;4.65;;
51048;SDS011;37084;55.228;36.450;2023-05-21T04:47:51;7.57;;;3.72;;
51048;SDS011;37084;55.228;36.450;2023-05-21T04:50:52;6.00;;;4.38;;
51048;SDS011;37084;55.228;36.450;2023-05-21T04:53:53;4.85;;;4.15;;
51048;SDS011;37084;55.228;36.450;2023-05-21T04:56:54;8.32;;;4.78;;
51048;SDS011;37084;55.228;36.450;2023-05-21T04:59:56;5.50;;;4.18;;
51048;SDS011;37084;55.228;36.450;2023-05-21T05:02:57;6.63;;;4.75;;
51048;SDS011;37084;55.228;36.450;2023-05-21T05:05:59;7.55;;;4.72;;
51048;SDS011;37084;55.228;36.450;2023-05-21T05:09:04;6.78;;;4.72;;
51048;SDS011;37084;55.228;36.450;2023-05-21T05:12:06;5.72;;;4.75;;
51048;SDS011;37084;55.228;36.450;2023-05-21T05:15:07;7.80;;;4.80;;
51048;SDS011;37084;55.228;36.450;2023-05-21T05:18:10;7.32;;;4.72;;
51048;SDS011;37084;55.228;36.450;2023-05-21T05:21:12;6.43;;;4.43;;
51048;SDS011;37084;55.228;36.450;2023-05-21T05:24:13;6.43;;;4.45;;
51048;SDS011;37084;55.228;36.450;2023-05-21T05:27:16;6.68;;;4.50;;
51048;SDS011;37084;55.228;36.450;2023-05-21T05:30:18;5.78;;;4.20;;
51048;SDS011;37084;55.228;36.450;2023-05-21T05:33:20;4.82;;;4.25;;
51048;SDS011;37084;55.228;36.450;2023-05-21T05:36:21;5.88;;;4.40;;
51048;SDS011;37084;55.228;36.450;2023-05-21T05:39:22;4.93;;;4.25;;
51048;SDS011;37084;55.228;36.450;2023-05-21T05:42:24;5.32;;;3.67;;
51048;SDS011;37084;55.228;36.450;2023-05-21T05:45:26;5.20;;;3.65;;
51048;SDS011;37084;55.228;36.450;2023-05-21T05:48:29;5.53;;;3.95;;
51048;SDS011;37084;55.228;36.450;2023-05-21T05:51:32;5.65;;;4.03;;
51048;SDS011;37084;55.228;36.450;2023-05-21T05:54:33;6.07;;;4.85;;
51048;SDS011;37084;55.228;36.450;2023-05-21T05:57:34;4.43;;;3.88;;
51048;SDS011;37084;55.228;36.450;2023-05-21T06:00:42;4.30;;;3.53;;
51048;SDS011;37084;55.228;36.450;2023-05-21T06:03:43;4.53;;;3.92;;
51048;SDS011;37084;55.228;36.450;2023-05-21T06:06:48;5.05;;;4.25;;
51048;SDS011;37084;55.228;36.450;2023-05-21T06:09:49;5.38;;;4.20;;
51048;SDS011;37084;55.228;36.450;2023-05-21T06:12:50;4.80;;;4.28;;
51048;SDS011;37084;55.228;36.450;2023-05-21T06:15:52;5.00;;;3.90;;
51048;SDS011;37084;55.228;36.450;2023-05-21T06:18:53;5.32;;;3.95;;
51048;SDS011;37084;55.228;36.450;2023-05-21T06:21:55;7.10;;;4.72;;
51048;SDS011;37084;55.228;36.450;2023-05-21T06:24:56;9.07;;;6.30;;
51048;SDS011;37084;55.228;36.450;2023-05-21T06:27:57;6.90;;;5.28;;
51048;SDS011;37084;55.228;36.450;2023-05-21T06:31:01;8.98;;;5.40;;
51048;SDS011;37084;55.228;36.450;2023-05-21T06:34:04;8.05;;;5.70;;
51048;SDS011;37084;55.228;36.450;2023-05-21T06:37:06;8.30;;;5.55;;
51048;SDS011;37084;55.228;36.450;2023-05-21T06:40:08;8.30;;;6.28;;
51048;SDS011;37084;55.228;36.450;2023-05-21T06:43:10;7.88;;;5.30;;
51048;SDS011;37084;55.228;36.450;2023-05-21T06:46:37;7.82;;;5.78;;
51048;SDS011;37084;55.228;36.450;2023-05-21T06:49:41;9.68;;;6.15;;
51048;SDS011;37084;55.228;36.450;2023-05-21T06:52:42;9.88;;;6.38;;
51048;SDS011;37084;55.228;36.450;2023-05-21T06:55:44;9.00;;;6.90;;
51048;SDS011;37084;55.228;36.450;2023-05-21T06:58:53;8.18;;;6.18;;
51048;SDS011;37084;55.228;36.450;2023-05-21T07:01:55;9.35;;;6.05;;
51048;SDS011;37084;55.228;36.450;2023-05-21T07:04:57;10.13;;;6.75;;
51048;SDS011;37084;55.228;36.450;2023-05-21T07:07:59;10.10;;;6.72;;
51048;SDS011;37084;55.228;36.450;2023-05-21T07:11:00;7.40;;;5.93;;
51048;SDS011;37084;55.228;36.450;2023-05-21T07:14:02;8.57;;;6.03;;
51048;SDS011;37084;55.228;36.450;2023-05-21T07:17:08;7.75;;;6.40;;
51048;SDS011;37084;55.228;36.450;2023-05-21T07:20:10;9.70;;;6.13;;
51048;SDS011;37084;55.228;36.450;2023-05-21T07:23:15;8.38;;;6.28;;
51048;SDS011;37084;55.228;36.450;2023-05-21T07:26:16;8.38;;;6.78;;
51048;SDS011;37084;55.228;36.450;2023-05-21T07:29:18;9.02;;;6.68;;
51048;SDS011;37084;55.228;36.450;2023-05-21T07:32:20;8.10;;;5.72;;
51048;SDS011;37084;55.228;36.450;2023-05-21T07:35:22;8.50;;;5.97;;
51048;SDS011;37084;55.228;36.450;2023-05-21T07:38:23;7.97;;;6.40;;
51048;SDS011;37084;55.228;36.450;2023-05-21T07:41:25;9.23;;;6.60;;
51048;SDS011;37084;55.228;36.450;2023-05-21T07:44:27;10.07;;;6.85;;
51048;SDS011;37084;55.228;36.450;2023-05-21T07:47:28;10.90;;;6.43;;
51048;SDS011;37084;55.228;36.450;2023-05-21T07:50:31;10.07;;;7.07;;
51048;SDS011;37084;55.228;36.450;2023-05-21T07:53:32;11.48;;;7.63;;
51048;SDS011;37084;55.228;36.450;2023-05-21T07:56:37;12.43;;;7.85;;
51048;SDS011;37084;55.228;36.450;2023-05-21T07:59:40;12.25;;;8.10;;
51048;SDS011;37084;55.228;36.450;2023-05-21T08:02:41;11.02;;;8.07;;
51048;SDS011;37084;55.228;36.450;2023-05-21T08:05:45;11.40;;;7.32;;
51048;SDS011;37084;55.228;36.450;2023-05-21T08:08:51;10.45;;;7.60;;
51048;SDS011;37084;55.228;36.450;2023-05-21T08:11:54;10.77;;;8.60;;
51048;SDS011;37084;55.228;36.450;2023-05-21T08:14:56;9.25;;;6.75;;
51048;SDS011;37084;55.228;36.450;2023-05-21T08:17:59;11.27;;;7.55;;
51048;SDS011;37084;55.228;36.450;2023-05-21T08:21:01;10.55;;;7.97;;
51048;SDS011;37084;55.228;36.450;2023-05-21T08:24:03;9.02;;;7.68;;
51048;SDS011;37084;55.228;36.450;2023-05-21T08:27:05;10.63;;;6.75;;
51048;SDS011;37084;55.228;36.450;2023-05-21T08:30:08;9.07;;;6.95;;
51048;SDS011;37084;55.228;36.450;2023-05-21T08:33:13;9.93;;;7.38;;
51048;SDS011;37084;55.228;36.450;2023-05-21T08:36:14;9.65;;;7.55;;
51048;SDS011;37084;55.228;36.450;2023-05-21T08:39:23;9.82;;;7.25;;
51048;SDS011;37084;55.228;36.450;2023-05-21T08:42:28;9.65;;;7.47;;
51048;SDS011;37084;55.228;36.450;2023-05-21T08:45:32;10.23;;;8.23;;
51048;SDS011;37084;55.228;36.450;2023-05-21T08:48:38;11.10;;;7.57;;
51048;SDS011;37084;55.228;36.450;2023-05-21T08:51:39;9.93;;;7.05;;
51048;SDS011;37084;55.228;36.450;2023-05-21T08:54:41;9.65;;;7.25;;
51048;SDS011;37084;55.228;36.450;2023-05-21T08:57:44;8.00;;;6.82;;
51048;SDS011;37084;55.228;36.450;2023-05-21T09:00:48;8.60;;;6.80;;
51048;SDS011;37084;55.228;36.450;2023-05-21T09:03:49;7.80;;;6.47;;
51048;SDS011;37084;55.228;36.450;2023-05-21T09:06:53;7.50;;;6.53;;
51048;SDS011;37084;55.228;36.450;2023-05-21T09:10:13;7.68;;;6.00;;
51048;SDS011;37084;55.228;36.450;2023-05-21T09:13:18;6.63;;;5.82;;
51048;SDS011;37084;55.228;36.450;2023-05-21T09:16:22;7.20;;;6.15;;
51048;SDS011;37084;55.228;36.450;2023-05-21T09:19:24;7.70;;;6.00;;
51048;SDS011;37084;55.228;36.450;2023-05-21T09:22:25;8.50;;;6.75;;
51048;SDS011;37084;55.228;36.450;2023-05-21T09:25:26;8.57;;;6.47;;
51048;SDS011;37084;55.228;36.450;2023-05-21T09:28:29;8.32;;;6.28;;
51048;SDS011;37084;55.228;36.450;2023-05-21T09:31:30;10.93;;;7.32;;
51048;SDS011;37084;55.228;36.450;2023-05-21T09:40:44;8.93;;;6.20;;
51048;SDS011;37084;55.228;36.450;2023-05-21T09:43:51;8.70;;;6.65;;
51048;SDS011;37084;55.228;36.450;2023-05-21T09:46:55;8.50;;;7.03;;
51048;SDS011;37084;55.228;36.450;2023-05-21T09:50:00;7.90;;;5.97;;
51048;SDS011;37084;55.228;36.450;2023-05-21T09:53:01;11.30;;;6.70;;
51048;SDS011;37084;55.228;36.450;2023-05-21T09:56:02;9.55;;;6.20;;
51048;SDS011;37084;55.228;36.450;2023-05-21T09:59:04;6.78;;;4.85;;
51048;SDS011;37084;55.228;36.450;2023-05-21T10:02:16;6.10;;;4.97;;
51048;SDS011;37084;55.228;36.450;2023-05-21T10:05:20;6.10;;;5.05;;
51048;SDS011;37084;55.228;36.450;2023-05-21T10:08:27;6.72;;;4.95;;
51048;SDS011;37084;55.228;36.450;2023-05-21T10:11:31;6.70;;;5.28;;
51048;SDS011;37084;55.228;36.450;2023-05-21T10:14:32;8.57;;;5.30;;
51048;SDS011;37084;55.228;36.450;2023-05-21T10:17:34;6.75;;;5.32;;
51048;SDS011;37084;55.228;36.450;2023-05-21T10:20:36;7.95;;;6.25;;
51048;SDS011;37084;55.228;36.450;2023-05-21T10:23:37;7.78;;;5.55;;
51048;SDS011;37084;55.228;36.450;2023-05-21T10:26:40;7.40;;;5.20;;
51048;SDS011;37084;55.228;36.450;2023-05-21T10:29:41;7.28;;;5.03;;
51048;SDS011;37084;55.228;36.450;2023-05-21T10:32:44;7.18;;;5.03;;
51048;SDS011;37084;55.228;36.450;2023-05-21T10:35:47;8.48;;;5.88;;
51048;SDS011;37084;55.228;36.450;2023-05-21T10:38:49;6.13;;;5.05;;
51048;SDS011;37084;55.228;36.450;2023-05-21T10:41:57;5.38;;;4.22;;
51048;SDS011;37084;55.228;36.450;2023-05-21T10:45:25;5.47;;;4.82;;
51048;SDS011;37084;55.228;36.450;2023-05-21T10:51:53;5.63;;;5.03;;
51048;SDS011;37084;55.228;36.450;2023-05-21T10:58:29;4.75;;;4.10;;
51048;SDS011;37084;55.228;36.450;2023-05-21T11:01:50;3.75;;;3.35;;
51048;SDS011;37084;55.228;36.450;2023-05-21T11:04:59;4.60;;;3.80;;
51048;SDS011;37084;55.228;36.450;2023-05-21T11:08:01;4.30;;;3.90;;
51048;SDS011;37084;55.228;36.450;2023-05-21T11:11:03;5.05;;;4.07;;
51048;SDS011;37084;55.228;36.450;2023-05-21T11:14:23;4.50;;;3.90;;
51048;SDS011;37084;55.228;36.450;2023-05-21T11:17:40;4.75;;;3.63;;
51048;SDS011;37084;55.228;36.450;2023-05-21T11:20:49;3.97;;;3.50;;
51048;SDS011;37084;55.228;36.450;2023-05-21T11:23:58;3.75;;;3.10;;
51048;SDS011;37084;55.228;36.450;2023-05-21T11:27:03;4.18;;;3.75;;
51048;SDS011;37084;55.228;36.450;2023-05-21T11:36:13;3.05;;;2.65;;
51048;SDS011;37084;55.228;36.450;2023-05-21T11:39:17;3.20;;;2.90;;
51048;SDS011;37084;55.228;36.450;2023-05-21T11:42:29;4.43;;;2.80;;
51048;SDS011;37084;55.228;36.450;2023-05-21T11:45:33;3.33;;;2.78;;
51048;SDS011;37084;55.228;36.450;2023-05-21T11:48:35;3.58;;;2.88;;
51048;SDS011;37084;55.228;36.450;2023-05-21T11:51:36;4.60;;;2.17;;
51048;SDS011;37084;55.228;36.450;2023-05-21T11:54:50;2.72;;;2.50;;
51048;SDS011;37084;55.228;36.450;2023-05-21T11:57:55;2.45;;;2.25;;
51048;SDS011;37084;55.228;36.450;2023-05-21T12:00:56;2.83;;;2.60;;
51048;SDS011;37084;55.228;36.450;2023-05-21T12:03:57;2.92;;;2.63;;
51048;SDS011;37084;55.228;36.450;2023-05-21T12:07:03;2.83;;;1.70;;
51048;SDS011;37084;55.228;36.450;2023-05-21T12:10:09;6.15;;;2.50;;
51048;SDS011;37084;55.228;36.450;2023-05-21T12:13:11;2.00;;;1.90;;
51048;SDS011;37084;55.228;36.450;2023-05-21T12:16:14;1.70;;;1.60;;
51048;SDS011;37084;55.228;36.450;2023-05-21T12:19:16;2.72;;;2.53;;
51048;SDS011;37084;55.228;36.450;2023-05-21T12:22:18;2.40;;;2.20;;
51048;SDS011;37084;55.228;36.450;2023-05-21T12:25:20;2.40;;;2.20;;
51048;SDS011;37084;55.228;36.450;2023-05-21T12:28:22;2.00;;;1.75;;
51048;SDS011;37084;55.228;36.450;2023-05-21T12:31:24;2.30;;;2.10;;
51048;SDS011;37084;55.228;36.450;2023-05-21T12:37:44;2.35;;;2.15;;
51048;SDS011;37084;55.228;36.450;2023-05-21T12:40:45;2.65;;;2.45;;
51048;SDS011;37084;55.228;36.450;2023-05-21T12:43:46;2.60;;;2.40;;
51048;SDS011;37084;55.228;36.450;2023-05-21T12:46:47;3.00;;;2.80;;
51048;SDS011;37084;55.228;36.450;2023-05-21T12:49:48;3.10;;;2.75;;
51048;SDS011;37084;55.228;36.450;2023-05-21T12:52:54;2.60;;;2.40;;
51048;SDS011;37084;55.228;36.450;2023-05-21T12:56:05;2.75;;;1.80;;
51048;SDS011;37084;55.228;36.450;2023-05-21T12:59:13;4.22;;;2.50;;
51048;SDS011;37084;55.228;36.450;2023-05-21T13:02:15;1.88;;;1.65;;
51048;SDS011;37084;55.228;36.450;2023-05-21T13:05:19;2.78;;;2.50;;
51048;SDS011;37084;55.228;36.450;2023-05-21T13:08:20;5.18;;;2.53;;
51048;SDS011;37084;55.228;36.450;2023-05-21T13:11:22;2.05;;;1.90;;
51048;SDS011;37084;55.228;36.450;2023-05-21T13:14:23;2.88;;;2.17;;
51048;SDS011;37084;55.228;36.450;2023-05-21T13:17:24;2.30;;;2.10;;
51048;SDS011;37084;55.228;36.450;2023-05-21T13:20:27;1.90;;;1.80;;
51048;SDS011;37084;55.228;36.450;2023-05-21T13:23:28;2.78;;;2.35;;
51048;SDS011;37084;55.228;36.450;2023-05-21T13:26:30;1.98;;;1.80;;
51048;SDS011;37084;55.228;36.450;2023-05-21T13:29:32;2.25;;;2.15;;
51048;SDS011;37084;55.228;36.450;2023-05-21T13:32:34;1.70;;;1.30;;
51048;SDS011;37084;55.228;36.450;2023-05-21T13:35:36;2.58;;;2.35;;
51048;SDS011;37084;55.228;36.450;2023-05-21T13:38:37;2.30;;;1.90;;
51048;SDS011;37084;55.228;36.450;2023-05-21T13:41:38;2.35;;;1.90;;
51048;SDS011;37084;55.228;36.450;2023-05-21T13:44:40;2.05;;;1.85;;
51048;SDS011;37084;55.228;36.450;2023-05-21T13:47:43;1.83;;;1.58;;
51048;SDS011;37084;55.228;36.450;2023-05-21T13:50:45;2.30;;;2.10;;
51048;SDS011;37084;55.228;36.450;2023-05-21T13:53:47;2.80;;;2.55;;
51048;SDS011;37084;55.228;36.450;2023-05-21T13:56:48;2.42;;;2.10;;
51048;SDS011;37084;55.228;36.450;2023-05-21T13:59:49;3.17;;;2.55;;
51048;SDS011;37084;55.228;36.450;2023-05-21T14:02:52;2.35;;;2.15;;
51048;SDS011;37084;55.228;36.450;2023-05-21T14:05:54;2.70;;;2.33;;
51048;SDS011;37084;55.228;36.450;2023-05-21T14:08:58;2.08;;;1.92;;
51048;SDS011;37084;55.228;36.450;2023-05-21T14:11:59;2.30;;;2.10;;
51048;SDS011;37084;55.228;36.450;2023-05-21T14:15:00;3.40;;;3.10;;
51048;SDS011;37084;55.228;36.450;2023-05-21T14:18:07;3.17;;;2.65;;
51048;SDS011;37084;55.228;36.450;2023-05-21T14:21:11;4.25;;;3.15;;
51048;SDS011;37084;55.228;36.450;2023-05-21T14:24:12;3.45;;;3.15;;
51048;SDS011;37084;55.228;36.450;2023-05-21T14:27:14;4.40;;;3.10;;
51048;SDS011;37084;55.228;36.450;2023-05-21T14:30:15;3.90;;;3.38;;
51048;SDS011;37084;55.228;36.450;2023-05-21T14:33:16;4.47;;;3.63;;
51048;SDS011;37084;55.228;36.450;2023-05-21T14:36:18;4.65;;;4.25;;
51048;SDS011;37084;55.228;36.450;2023-05-21T14:39:19;6.28;;;4.72;;
51048;SDS011;37084;55.228;36.450;2023-05-21T14:42:20;4.78;;;4.28;;
51048;SDS011;37084;55.228;36.450;2023-05-21T14:45:21;5.60;;;4.18;;
51048;SDS011;37084;55.228;36.450;2023-05-21T14:48:23;5.13;;;4.13;;
51048;SDS011;37084;55.228;36.450;2023-05-21T14:51:24;6.05;;;3.80;;
51048;SDS011;37084;55.228;36.450;2023-05-21T14:54:29;6.00;;;4.10;;
51048;SDS011;37084;55.228;36.450;2023-05-21T14:57:34;3.88;;;3.53;;
51048;SDS011;37084;55.228;36.450;2023-05-21T15:00:49;3.85;;;3.47;;
51048;SDS011;37084;55.228;36.450;2023-05-21T15:04:35;4.25;;;3.60;;
51048;SDS011;37084;55.228;36.450;2023-05-21T15:07:37;3.60;;;2.63;;
51048;SDS011;37084;55.228;36.450;2023-05-21T15:10:40;3.72;;;3.30;;
51048;SDS011;37084;55.228;36.450;2023-05-21T15:17:46;4.30;;;3.20;;
51048;SDS011;37084;55.228;36.450;2023-05-21T15:29:16;3.90;;;3.22;;
51048;SDS011;37084;55.228;36.450;2023-05-21T15:32:18;3.58;;;3.10;;
51048;SDS011;37084;55.228;36.450;2023-05-21T15:35:22;3.45;;;2.88;;
51048;SDS011;37084;55.228;36.450;2023-05-21T15:38:23;3.83;;;3.42;;
51048;SDS011;37084;55.228;36.450;2023-05-21T15:41:25;5.25;;;3.33;;
51048;SDS011;37084;55.228;36.450;2023-05-21T15:44:26;4.05;;;2.22;;
51048;SDS011;37084;55.228;36.450;2023-05-21T15:47:28;3.88;;;3.40;;
51048;SDS011;37084;55.228;36.450;2023-05-21T15:50:29;4.35;;;3.63;;
51048;SDS011;37084;55.228;36.450;2023-05-21T15:53:30;4.68;;;3.90;;
51048;SDS011;37084;55.228;36.450;2023-05-21T15:56:31;6.15;;;3.53;;
51048;SDS011;37084;55.228;36.450;2023-05-21T15:59:33;5.78;;;3.95;;
51048;SDS011;37084;55.228;36.450;2023-05-21T16:02:34;5.70;;;3.42;;
51048;SDS011;37084;55.228;36.450;2023-05-21T16:05:35;2.55;;;2.00;;
51048;SDS011;37084;55.228;36.450;2023-05-21T16:08:36;3.22;;;2.92;;
51048;SDS011;37084;55.228;36.450;2023-05-21T16:11:37;5.00;;;2.63;;
51048;SDS011;37084;55.228;36.450;2023-05-21T16:14:39;2.85;;;2.15;;
51048;SDS011;37084;55.228;36.450;2023-05-21T16:17:40;2.97;;;2.67;;
51048;SDS011;37084;55.228;36.450;2023-05-21T16:20:41;2.70;;;2.40;;
51048;SDS011;37084;55.228;36.450;2023-05-21T16:23:42;3.33;;;2.20;;
51048;SDS011;37084;55.228;36.450;2023-05-21T16:26:43;2.22;;;1.80;;
51048;SDS011;37084;55.228;36.450;2023-05-21T16:29:45;2.65;;;2.30;;
51048;SDS011;37084;55.228;36.450;2023-05-21T16:32:47;3.17;;;2.65;;
51048;SDS011;37084;55.228;36.450;2023-05-21T16:39:29;2.90;;;2.60;;
51048;SDS011;37084;55.228;36.450;2023-05-21T16:42:31;2.65;;;2.42;;
51048;SDS011;37084;55.228;36.450;2023-05-21T16:45:39;3.40;;;3.00;;
51048;SDS011;37084;55.228;36.450;2023-05-21T16:48:44;4.90;;;2.95;;
51048;SDS011;37084;55.228;36.450;2023-05-21T16:51:48;3.03;;;2.55;;
51048;SDS011;37084;55.228;36.450;2023-05-21T16:54:49;3.35;;;2.88;;
51048;SDS011;37084;55.228;36.450;2023-05-21T16:57:50;3.53;;;3.22;;
51048;SDS011;37084;55.228;36.450;2023-05-21T17:00:52;4.20;;;3.03;;
51048;SDS011;37084;55.228;36.450;2023-05-21T17:03:53;3.45;;;3.15;;
51048;SDS011;37084;55.228;36.450;2023-05-21T17:06:55;3.70;;;3.10;;
51048;SDS011;37084;55.228;36.450;2023-05-21T17:09:56;4.30;;;3.45;;
51048;SDS011;37084;55.228;36.450;2023-05-21T17:12:57;5.10;;;3.72;;
51048;SDS011;37084;55.228;36.450;2023-05-21T17:15:59;4.93;;;3.55;;
51048;SDS011;37084;55.228;36.450;2023-05-21T17:19:00;3.97;;;3.58;;
51048;SDS011;37084;55.228;36.450;2023-05-21T17:22:01;3.58;;;3.28;;
51048;SDS011;37084;55.228;36.450;2023-05-21T17:25:03;4.07;;;3.33;;
51048;SDS011;37084;55.228;36.450;2023-05-21T17:28:05;3.72;;;3.40;;
51048;SDS011;37084;55.228;36.450;2023-05-21T17:31:07;6.15;;;4.35;;
51048;SDS011;37084;55.228;36.450;2023-05-21T17:34:08;4.53;;;4.13;;
51048;SDS011;37084;55.228;36.450;2023-05-21T17:37:10;6.20;;;4.47;;
51048;SDS011;37084;55.228;36.450;2023-05-21T17:40:11;4.32;;;3.92;;
51048;SDS011;37084;55.228;36.450;2023-05-21T17:43:13;4.30;;;3.33;;
51048;SDS011;37084;55.228;36.450;2023-05-21T17:46:14;5.05;;;4.10;;
51048;SDS011;37084;55.228;36.450;2023-05-21T17:49:17;5.50;;;4.72;;
51048;SDS011;37084;55.228;36.450;2023-05-21T17:52:18;8.65;;;5.65;;
51048;SDS011;37084;55.228;36.450;2023-05-21T17:55:20;10.18;;;5.97;;
51048;SDS011;37084;55.228;36.450;2023-05-21T17:58:21;7.38;;;5.72;;
51048;SDS011;37084;55.228;36.450;2023-05-21T18:01:22;10.32;;;5.95;;
51048;SDS011;37084;55.228;36.450;2023-05-21T18:04:23;8.93;;;6.10;;
51048;SDS011;37084;55.228;36.450;2023-05-21T18:07:25;8.35;;;5.93;;
51048;SDS011;37084;55.228;36.450;2023-05-21T18:10:36;9.73;;;6.03;;
51048;SDS011;37084;55.228;36.450;2023-05-21T18:13:37;10.75;;;6.15;;
51048;SDS011;37084;55.228;36.450;2023-05-21T18:16:38;9.85;;;6.40;;
51048;SDS011;37084;55.228;36.450;2023-05-21T18:19:40;10.95;;;7.55;;
51048;SDS011;37084;55.228;36.450;2023-05-21T18:22:42;11.80;;;6.78;;
51048;SDS011;37084;55.228;36.450;2023-05-21T18:25:43;10.27;;;6.93;;
51048;SDS011;37084;55.228;36.450;2023-05-21T18:28:45;9.63;;;5.97;;
51048;SDS011;37084;55.228;36.450;2023-05-21T18:31:46;8.00;;;6.05;;
51048;SDS011;37084;55.228;36.450;2023-05-21T18:34:47;9.13;;;6.40;;
51048;SDS011;37084;55.228;36.450;2023-05-21T18:37:49;11.30;;;7.18;;
51048;SDS011;37084;55.228;36.450;2023-05-21T18:40:50;11.40;;;7.00;;
51048;SDS011;37084;55.228;36.450;2023-05-21T18:43:51;10.75;;;7.05;;
51048;SDS011;37084;55.228;36.450;2023-05-21T18:46:53;9.18;;;6.43;;
51048;SDS011;37084;55.228;36.450;2023-05-21T18:49:54;12.02;;;7.35;;